Time;durP1;ratioP1;P1;durP2;ratioP2;P2;SDS_P1;SDS_P2;PMS_P1;PMS_P2;Temp;Humidity;BMP_temperature;BMP_pressure;BME280_temperature;BME280_humidity;BME280_pressure;Samples;Min_cycle;Max_cycle;Signal;HPM_P1;HPM_P2
2023/06/09 00:00:40;;;;;;;6.53;3.57;;;17.50;99.90;17.00;100491;;;;588685;243;24079;-80
2023/06/09 00:03:08;;;;;;;5.73;4.10;;;17.50;99.90;17.00;100493;;;;588863;243;24050;-81
2023/06/09 00:05:36;;;;;;;8.57;4.33;;;17.60;99.90;17.00;100494;;;;588787;243;24065;-81
2023/06/09 00:08:04;;;;;;;4.37;3.97;;;17.60;99.90;17.00;100493;;;;588576;243;25122;-81
2023/06/09 00:10:32;;;;;;;6.53;3.53;;;17.60;99.90;17.00;100492;;;;579844;244;24120;-80
2023/06/09 00:13:00;;;;;;;5.60;3.80;;;17.50;99.90;17.00;100485;;;;585871;244;24104;-80
2023/06/09 00:15:28;;;;;;;6.87;4.57;;;17.50;99.90;17.00;100489;;;;588825;243;24066;-82
2023/06/09 00:17:56;;;;;;;8.20;3.90;;;17.50;99.90;17.00;100479;;;;588699;243;24120;-81
2023/06/09 00:20:24;;;;;;;5.57;4.30;;;17.50;99.90;16.90;100488;;;;579685;244;24075;-82
2023/06/09 00:22:55;;;;;;;5.57;4.03;;;17.50;99.90;16.90;100484;;;;579974;244;24137;-82
2023/06/09 00:25:22;;;;;;;4.37;3.53;;;17.40;99.90;16.90;100483;;;;588793;243;24130;-82
2023/06/09 00:27:47;;;;;;;5.27;3.80;;;17.40;99.90;16.90;100491;;;;580006;244;24098;-80
2023/06/09 00:30:15;;;;;;;10.67;4.00;;;17.40;99.90;16.90;100483;;;;589156;243;24066;-82
2023/06/09 00:32:43;;;;;;;5.73;3.97;;;17.40;99.90;16.80;100484;;;;581191;243;24084;-82
2023/06/09 00:35:12;;;;;;;6.32;4.97;;;17.30;99.90;16.80;100463;;;;585286;242;35195;-81
2023/06/09 00:37:39;;;;;;;8.97;4.30;;;17.30;99.90;16.80;100468;;;;590005;242;24060;-81
2023/06/09 00:40:08;;;;;;;4.40;4.00;;;17.30;99.90;16.70;100472;;;;590009;243;25149;-81
2023/06/09 00:42:36;;;;;;;10.30;4.33;;;17.30;99.90;16.70;100472;;;;578516;244;24086;-82
2023/06/09 00:45:04;;;;;;;6.17;4.27;;;17.30;99.90;16.70;100473;;;;589804;243;24099;-83
2023/06/09 00:47:31;;;;;;;6.27;4.27;;;17.20;99.90;16.60;100473;;;;580738;244;24066;-81
2023/06/09 00:49:59;;;;;;;5.87;4.17;;;17.20;99.90;16.60;100474;;;;580585;244;24092;-80
2023/06/09 00:52:27;;;;;;;4.90;4.00;;;17.10;99.90;16.60;100465;;;;589409;243;24062;-80
2023/06/09 00:54:58;;;;;;;4.37;3.97;;;17.10;99.90;16.50;100473;;;;580001;244;24075;-80
2023/06/09 00:57:27;;;;;;;5.77;3.70;;;17.00;99.90;16.50;100473;;;;580449;243;24159;-80
2023/06/09 00:59:56;;;;;;;4.63;3.77;;;17.00;99.90;16.50;100472;;;;579748;244;26345;-80
2023/06/09 01:02:23;;;;;;;6.33;3.97;;;17.00;99.90;16.50;100462;;;;580425;243;24244;-80
2023/06/09 01:04:52;;;;;;;5.17;4.10;;;17.00;99.90;16.40;100466;;;;579823;244;24138;-81
2023/06/09 01:07:32;;;;;;;7.67;4.57;;;17.00;99.90;16.40;100463;;;;588783;243;24080;-82
2023/06/09 01:10:20;;;;;;;5.87;4.07;;;16.90;99.90;16.30;100467;;;;579662;244;25171;-81
2023/06/09 01:12:51;;;;;;;4.50;3.73;;;16.90;99.90;16.30;100452;;;;580111;244;24078;-81
2023/06/09 01:15:19;;;;;;;6.43;3.67;;;16.90;99.90;16.20;100461;;;;571683;244;24129;-82
2023/06/09 01:17:50;;;;;;;5.23;3.97;;;16.80;99.90;16.20;100461;;;;579474;244;24104;-82
2023/06/09 01:20:15;;;;;;;5.47;4.27;;;16.80;99.90;16.20;100460;;;;578040;244;24081;-81
2023/06/09 01:22:49;;;;;;;8.27;4.10;;;16.70;99.90;16.10;100459;;;;580056;244;24139;-82
2023/06/09 01:25:38;;;;;;;9.40;4.03;;;16.60;99.90;16.10;100452;;;;585816;244;24088;-80
2023/06/09 01:28:13;;;;;;;4.27;3.77;;;16.50;99.90;16.00;100457;;;;585008;244;24062;-81
2023/06/09 01:30:41;;;;;;;4.93;3.77;;;16.50;99.90;16.00;100459;;;;579497;244;24082;-80
2023/06/09 01:33:12;;;;;;;5.30;3.33;;;16.50;99.90;15.90;100448;;;;589230;243;24156;-79
2023/06/09 01:35:40;;;;;;;4.57;3.77;;;16.40;99.90;15.80;100454;;;;580058;244;24081;-79
2023/06/09 01:38:07;;;;;;;4.10;3.70;;;16.40;99.90;15.80;100450;;;;585169;244;24088;-78
2023/06/09 01:40:36;;;;;;;4.07;3.67;;;16.40;99.90;15.70;100454;;;;589311;243;24119;-79
2023/06/09 01:43:03;;;;;;;5.23;3.47;;;16.30;99.90;15.70;100449;;;;586488;242;24084;-80
2023/06/09 01:45:35;;;;;;;5.65;4.37;;;16.30;99.90;15.70;100450;;;;573564;243;46103;-80
2023/06/09 01:47:59;;;;;;;5.13;4.33;;;16.20;99.90;15.60;100459;;;;580871;244;24069;-80
2023/06/09 01:50:55;;;;;;;4.30;3.90;;;16.20;99.90;15.60;100453;;;;580451;244;24113;-80
2023/06/09 01:53:26;;;;;;;5.93;3.60;;;16.10;99.90;15.50;100457;;;;580849;244;24427;-80
2023/06/09 01:56:00;;;;;;;4.77;3.67;;;16.10;99.90;15.50;100455;;;;580197;244;24093;-81
2023/06/09 01:58:31;;;;;;;3.67;3.33;;;16.00;99.90;15.40;100455;;;;577119;244;24174;-80
2023/06/09 02:00:58;;;;;;;3.77;3.47;;;16.00;99.90;15.40;100459;;;;580767;244;24108;-80
2023/06/09 02:03:26;;;;;;;4.53;3.50;;;16.00;99.90;15.40;100457;;;;579013;244;24106;-81
2023/06/09 02:05:54;;;;;;;8.40;4.10;;;15.90;99.90;15.30;100460;;;;578597;244;24088;-80
2023/06/09 02:08:22;;;;;;;5.80;4.00;;;15.90;99.90;15.30;100461;;;;578499;244;24189;-80
2023/06/09 02:10:50;;;;;;;6.03;3.97;;;15.90;99.90;15.30;100454;;;;578560;244;24061;-81
2023/06/09 02:13:19;;;;;;;4.10;3.67;;;15.80;99.90;15.20;100457;;;;589014;243;24068;-80
2023/06/09 02:15:46;;;;;;;5.30;3.80;;;15.80;99.90;15.20;100450;;;;577102;244;24066;-80
2023/06/09 02:18:18;;;;;;;7.15;4.57;;;15.80;99.90;15.20;100457;;;;575135;244;57015;-80
2023/06/09 02:20:47;;;;;;;6.17;3.90;;;15.80;99.90;15.20;100454;;;;579404;244;24142;-81
2023/06/09 02:23:15;;;;;;;6.37;3.67;;;15.70;99.90;15.10;100455;;;;579568;244;24100;-80
2023/06/09 02:25:40;;;;;;;4.03;3.63;;;15.70;99.90;15.20;100456;;;;579747;244;24065;-80
2023/06/09 02:28:08;;;;;;;6.33;4.00;;;15.70;99.90;15.10;100454;;;;585901;244;24154;-80
2023/06/09 02:30:36;;;;;;;5.27;3.80;;;15.70;99.90;15.10;100459;;;;589165;243;24062;-81
2023/06/09 02:33:04;;;;;;;9.83;4.17;;;15.70;99.90;15.10;100464;;;;586321;244;24113;-81
2023/06/09 02:35:31;;;;;;;5.27;3.67;;;15.70;99.90;15.10;100462;;;;589041;243;24058;-81
2023/06/09 02:38:00;;;;;;;4.73;3.47;;;15.70;99.90;15.10;100462;;;;589140;243;24081;-81
2023/06/09 02:40:31;;;;;;;5.43;4.73;;;15.70;99.90;15.10;100464;;;;579936;244;24096;-81
2023/06/09 02:42:56;;;;;;;4.97;3.90;;;15.70;99.90;15.10;100452;;;;579921;244;24081;-80
2023/06/09 02:45:24;;;;;;;9.50;4.37;;;15.70;99.90;15.10;100457;;;;589173;243;24061;-80
2023/06/09 02:47:52;;;;;;;6.90;3.97;;;15.70;99.90;15.20;100457;;;;589118;243;24058;-80
2023/06/09 02:50:20;;;;;;;4.23;3.63;;;15.80;99.90;15.20;100468;;;;580105;244;24111;-81
2023/06/09 02:52:48;;;;;;;4.37;3.67;;;15.80;99.90;15.20;100467;;;;589143;243;24059;-80
2023/06/09 02:55:18;;;;;;;4.40;3.73;;;15.80;99.90;15.30;100463;;;;589681;241;24160;-82
2023/06/09 02:57:43;;;;;;;6.20;4.07;;;15.80;99.90;15.30;100466;;;;590293;242;24101;-81
2023/06/09 03:00:12;;;;;;;5.37;3.77;;;15.90;99.90;15.40;100467;;;;587255;244;24135;-81
2023/06/09 03:02:41;;;;;;;9.63;4.37;;;16.00;99.90;15.40;100478;;;;580874;244;24050;-81
2023/06/09 03:05:13;;;;;;;5.70;3.07;;;16.00;99.90;15.50;100476;;;;589759;243;24087;-81
2023/06/09 03:07:37;;;;;;;5.50;3.57;;;16.00;99.90;15.50;100474;;;;580830;242;24117;-80
2023/06/09 03:10:08;;;;;;;4.43;3.30;;;16.10;99.90;15.60;100466;;;;589741;243;24077;-80
2023/06/09 03:12:33;;;;;;;7.80;3.43;;;16.20;99.90;15.70;100473;;;;586834;243;24076;-80
2023/06/09 03:15:00;;;;;;;9.10;4.37;;;16.20;99.90;15.70;100476;;;;589439;243;24089;-80
2023/06/09 03:17:28;;;;;;;5.17;3.23;;;16.30;99.90;15.80;100468;;;;589440;243;24154;-79
2023/06/09 03:19:56;;;;;;;5.60;3.80;;;16.30;99.90;15.90;100470;;;;589443;243;24103;-79
2023/06/09 03:22:26;;;;;;;4.20;3.80;;;16.50;99.90;15.90;100476;;;;589452;243;24089;-80
2023/06/09 03:24:54;;;;;;;9.03;3.77;;;16.60;99.90;16.00;100478;;;;589431;243;24067;-79
2023/06/09 03:27:22;;;;;;;7.87;3.77;;;16.50;99.90;16.00;100477;;;;589379;243;24194;-79
2023/06/09 03:29:49;;;;;;;4.77;3.30;;;16.60;99.90;16.10;100478;;;;586322;244;24143;-79
2023/06/09 03:32:17;;;;;;;6.30;3.77;;;16.70;99.90;16.20;100486;;;;588746;243;24123;-78
2023/06/09 03:34:45;;;;;;;5.27;3.50;;;16.80;99.90;16.40;100484;;;;588888;243;24060;-80
2023/06/09 03:37:14;;;;;;;4.93;4.13;;;16.90;99.90;16.50;100492;;;;588734;243;24137;-80
2023/06/09 03:39:45;;;;;;;4.93;3.77;;;17.00;99.90;16.60;100489;;;;588869;243;24144;-80
2023/06/09 03:42:09;;;;;;;6.33;4.10;;;17.20;99.90;16.80;100497;;;;579516;244;24121;-80
2023/06/09 03:44:38;;;;;;;4.50;3.97;;;17.50;99.90;16.90;100488;;;;588915;243;24057;-79
2023/06/09 03:47:09;;;;;;;6.23;3.40;;;17.60;99.90;17.10;100495;;;;589077;243;24077;-80
2023/06/09 03:49:34;;;;;;;10.10;3.40;;;17.60;99.90;17.30;100494;;;;588920;243;24156;-80
2023/06/09 03:52:06;;;;;;;7.30;3.50;;;17.80;99.90;17.80;100500;;;;588863;243;24050;-81
2023/06/09 03:54:30;;;;;;;6.17;3.93;;;18.20;99.90;18.20;100501;;;;579478;244;24059;-80
2023/06/09 03:56:58;;;;;;;4.47;3.43;;;18.70;99.90;18.50;100498;;;;589113;243;24067;-82
2023/06/09 03:59:26;;;;;;;3.53;3.23;;;19.00;99.90;18.60;100505;;;;588833;242;24097;-80
2023/06/09 04:01:54;;;;;;;5.13;4.17;;;19.20;99.90;18.60;100500;;;;585835;244;24085;-80
2023/06/09 04:04:22;;;;;;;7.83;3.73;;;19.20;99.90;18.60;100503;;;;579769;244;23087;-79
2023/06/09 04:06:50;;;;;;;4.40;3.90;;;19.20;99.90;18.70;100509;;;;589307;242;23188;-81
2023/06/09 04:09:18;;;;;;;4.63;3.70;;;19.30;99.90;18.90;100505;;;;590231;242;23090;-81
2023/06/09 04:11:46;;;;;;;9.83;4.00;;;19.70;99.90;19.20;100508;;;;589792;242;23096;-80
2023/06/09 04:14:14;;;;;;;7.60;4.27;;;19.70;99.90;19.70;100510;;;;589803;243;24081;-80
2023/06/09 04:16:43;;;;;;;4.67;3.73;;;20.00;99.90;20.60;100505;;;;580524;244;24407;-80
2023/06/09 04:19:10;;;;;;;4.57;3.37;;;21.00;99.90;21.80;100514;;;;586476;244;24113;-80
2023/06/09 04:21:42;;;;;;;7.67;3.43;;;22.10;99.90;22.90;100514;;;;589458;243;24095;-81
2023/06/09 04:24:09;;;;;;;7.57;3.67;;;23.30;99.90;23.80;100512;;;;589340;243;23096;-81
2023/06/09 04:26:38;;;;;;;4.13;3.67;;;24.30;99.90;24.60;100503;;;;580270;244;23106;-81
2023/06/09 04:29:09;;;;;;;7.07;3.37;;;25.10;99.90;25.40;100512;;;;580025;244;23169;-81
2023/06/09 04:31:33;;;;;;;7.23;3.83;;;26.00;99.90;26.20;100514;;;;579905;244;23103;-81
2023/06/09 04:34:07;;;;;;;6.30;3.37;;;26.90;99.90;26.80;100510;;;;589298;243;23098;-80
2023/06/09 04:36:32;;;;;;;6.15;3.47;;;27.50;99.90;27.40;100511;;;;580041;244;23083;-80
2023/06/09 04:38:59;;;;;;;7.60;3.70;;;28.20;99.90;28.20;100516;;;;589302;243;23107;-80
2023/06/09 04:41:27;;;;;;;4.65;3.47;;;28.90;99.90;28.70;100519;;;;589164;243;24180;-81
2023/06/09 04:43:58;;;;;;;6.78;3.67;;;29.50;99.90;29.20;100519;;;;589104;243;23095;-80
2023/06/09 04:46:25;;;;;;;13.38;4.55;;;30.10;98.50;29.50;100516;;;;585996;244;23085;-81
2023/06/09 04:48:51;;;;;;;7.32;3.70;;;30.40;96.30;29.90;100521;;;;579768;244;24133;-80
2023/06/09 04:51:24;;;;;;;6.80;4.20;;;30.90;93.00;29.80;100517;;;;588968;243;23087;-80
2023/06/09 04:53:47;;;;;;;4.53;3.75;;;30.80;92.90;29.90;100512;;;;588849;243;23103;-80
2023/06/09 04:56:16;;;;;;;17.30;4.22;;;31.00;92.10;30.40;100514;;;;588965;243;23079;-80
2023/06/09 04:58:44;;;;;;;7.82;4.05;;;31.70;89.20;30.70;100523;;;;588811;242;23087;-81
2023/06/09 05:01:13;;;;;;;7.80;4.22;;;31.60;89.00;30.90;100521;;;;589287;243;23157;-81
2023/06/09 05:03:40;;;;;;;4.60;3.55;;;31.90;86.40;31.30;100527;;;;588891;243;25234;-82
2023/06/09 05:06:08;;;;;;;10.48;4.00;;;32.20;84.20;31.60;100515;;;;588811;243;23101;-81
2023/06/09 05:08:36;;;;;;;7.87;3.75;;;32.50;82.00;32.20;100523;;;;589012;243;23091;-81
2023/06/09 05:11:04;;;;;;;7.47;3.95;;;33.00;80.40;32.80;100530;;;;588895;243;23079;-81
2023/06/09 05:13:31;;;;;;;7.18;3.30;;;33.60;77.50;33.10;100520;;;;589131;243;24090;-81
2023/06/09 05:15:59;;;;;;;5.22;4.10;;;34.00;74.80;33.50;100528;;;;588843;243;23102;-82
2023/06/09 05:18:27;;;;;;;14.43;4.50;;;34.40;72.60;33.70;100529;;;;589432;242;23155;-82
2023/06/09 05:20:55;;;;;;;4.90;3.67;;;34.50;70.90;34.10;100535;;;;590406;242;23066;-82
2023/06/09 05:23:23;;;;;;;10.25;4.28;;;34.80;69.80;34.40;100537;;;;590126;242;23062;-82
2023/06/09 05:25:51;;;;;;;6.05;3.60;;;35.20;67.70;35.00;100538;;;;589908;243;23136;-81
2023/06/09 05:28:20;;;;;;;4.37;3.92;;;36.30;64.90;35.70;100548;;;;589564;243;23079;-82
2023/06/09 05:30:48;;;;;;;4.18;3.80;;;36.80;61.90;36.20;100550;;;;580808;244;23101;-83
2023/06/09 05:33:17;;;;;;;5.85;3.55;;;37.00;60.90;36.40;100553;;;;586618;244;23087;-80
2023/06/09 05:35:47;;;;;;;4.78;3.58;;;37.00;60.50;36.70;100553;;;;589295;243;23064;-81
2023/06/09 05:38:13;;;;;;;10.27;3.83;;;37.40;60.20;37.00;100556;;;;589200;243;23080;-81
2023/06/09 05:40:41;;;;;;;7.25;3.92;;;37.70;58.40;37.20;100562;;;;589108;243;23076;-81
2023/06/09 05:43:09;;;;;;;7.37;3.60;;;37.80;57.90;37.20;100562;;;;589211;243;24088;-81
2023/06/09 05:45:37;;;;;;;7.35;3.40;;;37.80;57.10;37.00;100563;;;;589087;243;23098;-82
2023/06/09 05:48:05;;;;;;;4.18;3.75;;;37.70;56.70;37.20;100571;;;;580273;244;23064;-83
2023/06/09 05:50:32;;;;;;;5.53;3.87;;;37.70;57.00;37.80;100572;;;;580142;244;23059;-82
2023/06/09 05:53:00;;;;;;;4.68;4.00;;;38.20;56.40;38.30;100567;;;;580039;244;23129;-81
2023/06/09 05:55:28;;;;;;;4.72;3.47;;;38.70;55.60;39.00;100574;;;;588896;243;23117;-81
2023/06/09 05:58:00;;;;;;;7.75;3.85;;;39.80;53.10;39.40;100570;;;;588935;243;23090;-81
2023/06/09 06:00:29;;;;;;;6.55;4.03;;;40.00;52.20;39.60;100578;;;;589397;243;23099;-81
2023/06/09 06:02:54;;;;;;;4.62;3.97;;;40.00;52.20;39.40;100588;;;;589260;243;23077;-80
2023/06/09 06:05:21;;;;;;;4.50;3.60;;;39.90;51.70;38.50;100581;;;;588812;243;23091;-81
2023/06/09 06:07:49;;;;;;;7.00;3.70;;;39.20;52.00;37.20;100591;;;;589008;243;23121;-80
2023/06/09 06:10:17;;;;;;;6.87;3.90;;;38.00;52.90;35.80;100593;;;;588984;243;23236;-80
2023/06/09 06:12:45;;;;;;;5.45;3.97;;;36.70;55.00;35.10;100597;;;;589263;243;23083;-80
2023/06/09 06:15:13;;;;;;;4.72;3.80;;;35.70;56.70;34.50;100594;;;;588973;243;23118;-80
2023/06/09 06:17:41;;;;;;;5.57;4.28;;;35.00;57.70;34.10;100597;;;;579889;244;24112;-81
2023/06/09 06:20:13;;;;;;;7.18;3.90;;;34.50;58.50;33.90;100594;;;;588909;243;23123;-80
2023/06/09 06:22:37;;;;;;;5.50;3.72;;;34.20;59.20;34.60;100593;;;;579600;244;23111;-81
2023/06/09 06:25:05;;;;;;;6.05;4.03;;;34.60;59.40;35.90;100590;;;;588994;243;23070;-80
2023/06/09 06:27:33;;;;;;;7.97;3.97;;;35.80;58.00;37.00;100603;;;;579861;244;23068;-81
2023/06/09 06:30:02;;;;;;;6.55;3.92;;;36.90;56.30;37.70;100596;;;;589595;242;23131;-80
2023/06/09 06:32:29;;;;;;;5.95;4.07;;;37.80;54.60;38.30;100602;;;;590607;242;23114;-81
2023/06/09 06:34:57;;;;;;;6.68;4.25;;;38.40;54.10;38.90;100598;;;;589878;242;23099;-81
2023/06/09 06:37:25;;;;;;;9.68;4.18;;;39.40;51.50;39.20;100597;;;;590115;243;23073;-80
2023/06/09 06:39:54;;;;;;;7.82;4.47;;;39.50;51.10;39.30;100606;;;;589948;243;23078;-78
2023/06/09 06:42:23;;;;;;;6.03;3.87;;;39.70;51.20;39.50;100603;;;;580976;244;23082;-80
2023/06/09 06:44:51;;;;;;;5.57;4.37;;;39.70;51.10;39.90;100603;;;;589853;243;24089;-80
2023/06/09 06:47:19;;;;;;;8.18;4.68;;;40.00;50.50;40.20;100603;;;;585245;243;35142;-82
2023/06/09 06:49:47;;;;;;;6.07;4.43;;;40.40;49.80;40.20;100611;;;;589760;243;23056;-81
2023/06/09 06:52:14;;;;;;;6.22;4.05;;;40.50;49.60;40.50;100616;;;;589783;243;23055;-82
2023/06/09 06:54:42;;;;;;;4.85;3.97;;;40.70;49.40;40.90;100615;;;;589514;243;23086;-81
2023/06/09 06:57:10;;;;;;;8.15;4.45;;;41.00;49.00;40.70;100612;;;;589731;243;23100;-81
2023/06/09 06:59:38;;;;;;;6.87;5.10;;;41.00;48.10;40.90;100626;;;;590429;243;23187;-82
2023/06/09 07:02:10;;;;;;;9.65;4.12;;;41.10;48.00;41.20;100630;;;;589615;243;23079;-82
2023/06/09 07:04:34;;;;;;;7.25;4.43;;;41.30;47.80;41.60;100622;;;;579726;244;23130;-82
2023/06/09 07:07:02;;;;;;;8.75;4.12;;;41.70;47.30;41.80;100628;;;;589061;243;23154;-83
2023/06/09 07:09:30;;;;;;;4.87;4.15;;;41.90;47.00;42.10;100627;;;;589368;243;23090;-83
2023/06/09 07:11:58;;;;;;;5.30;4.57;;;41.80;46.10;41.50;100630;;;;589286;243;23064;-82
2023/06/09 07:14:27;;;;;;;5.53;4.10;;;41.40;46.70;41.20;100636;;;;589018;243;23146;-81
2023/06/09 07:16:56;;;;;;;5.47;4.00;;;41.70;46.70;41.70;100639;;;;580276;244;23094;-81
2023/06/09 07:19:24;;;;;;;7.60;4.40;;;41.70;46.60;42.00;100642;;;;589100;243;23076;-82
2023/06/09 07:21:52;;;;;;;4.18;3.53;;;42.00;45.80;42.40;100645;;;;589167;243;23221;-81
2023/06/09 07:24:20;;;;;;;5.18;4.00;;;42.40;45.50;42.30;100638;;;;588915;243;23074;-83
2023/06/09 07:26:48;;;;;;;8.88;4.20;;;42.40;44.90;42.40;100639;;;;588964;243;23085;-82
2023/06/09 07:29:15;;;;;;;7.43;4.50;;;42.50;45.10;42.50;100638;;;;589360;243;23096;-82
2023/06/09 07:31:43;;;;;;;7.00;3.53;;;42.50;44.90;42.00;100649;;;;589818;243;23071;-82
2023/06/09 07:34:11;;;;;;;8.23;4.47;;;42.40;44.80;40.10;100641;;;;589207;243;23123;-82
2023/06/09 07:36:42;;;;;;;4.72;4.12;;;40.90;45.60;38.20;100636;;;;586444;244;23079;-81
2023/06/09 07:39:10;;;;;;;9.77;4.22;;;39.10;47.60;37.20;100644;;;;589940;243;23075;-81
2023/06/09 07:41:38;;;;;;;4.18;3.85;;;37.80;49.40;36.90;100647;;;;581617;243;23086;-82
2023/06/09 07:44:06;;;;;;;6.05;4.07;;;37.20;50.60;37.90;100643;;;;581616;243;23071;-80
2023/06/09 07:46:34;;;;;;;5.50;4.68;;;37.70;50.60;39.10;100631;;;;590436;242;23085;-82
2023/06/09 07:49:02;;;;;;;8.88;4.18;;;38.90;49.50;40.20;100647;;;;590473;243;23175;-82
2023/06/09 07:51:30;;;;;;;10.55;4.28;;;39.90;48.10;41.10;100649;;;;590012;243;23067;-80
2023/06/09 07:53:57;;;;;;;6.47;4.68;;;40.90;46.80;41.40;100649;;;;580755;244;23078;-82
2023/06/09 07:56:25;;;;;;;7.00;4.65;;;41.50;46.00;41.60;100645;;;;589519;243;23091;-83
2023/06/09 07:58:53;;;;;;;6.00;4.05;;;41.70;46.30;41.80;100652;;;;589445;242;23119;-81
2023/06/09 08:01:22;;;;;;;5.55;4.10;;;42.30;44.80;42.20;100649;;;;589086;243;23130;-80
2023/06/09 08:03:51;;;;;;;7.20;3.97;;;42.50;44.80;42.40;100654;;;;589529;243;23127;-82
2023/06/09 08:06:19;;;;;;;8.80;4.18;;;43.00;43.70;42.90;100653;;;;580873;244;24119;-82
2023/06/09 08:08:49;;;;;;;6.47;4.03;;;43.00;43.70;43.10;100650;;;;586982;244;23087;-83
2023/06/09 08:11:16;;;;;;;6.93;3.85;;;43.20;43.60;43.40;100663;;;;590141;243;23078;-84
2023/06/09 08:13:45;;;;;;;8.15;5.03;;;43.90;43.10;43.80;100660;;;;581122;244;23089;-79
2023/06/09 08:16:13;;;;;;;6.97;3.97;;;43.80;43.00;44.20;100668;;;;589621;243;23086;-81
2023/06/09 08:18:41;;;;;;;7.85;4.35;;;44.30;43.00;44.60;100664;;;;589037;243;23154;-80
2023/06/09 08:21:11;;;;;;;6.68;4.50;;;44.80;42.10;44.60;100668;;;;589879;243;23077;-83
2023/06/09 08:23:37;;;;;;;5.03;4.50;;;44.80;41.50;44.50;100671;;;;590368;243;23143;-82
2023/06/09 08:26:05;;;;;;;9.45;4.40;;;44.70;41.50;44.70;100674;;;;590089;243;23071;-83
2023/06/09 08:28:33;;;;;;;9.45;4.87;;;44.80;41.50;44.80;100668;;;;589528;243;23077;-84
2023/06/09 08:31:01;;;;;;;4.65;4.35;;;44.90;41.30;44.90;100675;;;;589597;243;23075;-84
2023/06/09 08:33:29;;;;;;;5.75;4.60;;;45.00;41.00;45.20;100675;;;;589992;243;23096;-82
2023/06/09 08:35:57;;;;;;;7.70;4.72;;;45.20;41.00;45.60;100682;;;;580501;244;23075;-82
2023/06/09 08:38:25;;;;;;;10.30;4.55;;;45.60;40.60;45.90;100673;;;;586041;244;23072;-82
2023/06/09 08:40:53;;;;;;;6.28;4.43;;;46.00;40.40;46.00;100688;;;;588909;243;23113;-81
2023/06/09 08:43:24;;;;;;;11.45;4.80;;;46.20;39.90;46.20;100679;;;;579753;244;23079;-82
2023/06/09 08:45:49;;;;;;;8.93;4.75;;;46.80;39.70;46.60;100674;;;;579932;244;23098;-80
2023/06/09 08:48:17;;;;;;;8.93;4.37;;;46.70;39.60;46.80;100680;;;;586371;244;23064;-80
2023/06/09 08:50:48;;;;;;;5.30;4.60;;;47.00;39.20;46.30;100678;;;;589364;244;23139;-81
2023/06/09 08:53:17;;;;;;;5.53;4.47;;;46.70;38.90;45.90;100681;;;;580721;243;23147;-83
2023/06/09 08:55:41;;;;;;;12.85;5.18;;;46.40;39.10;46.20;100685;;;;581042;243;23081;-83
2023/06/09 08:58:09;;;;;;;9.85;4.53;;;46.40;39.30;46.20;100683;;;;581769;244;23146;-81
2023/06/09 09:00:38;;;;;;;4.70;4.30;;;46.50;38.70;45.90;100685;;;;589714;243;24113;-83
2023/06/09 09:03:05;;;;;;;6.90;4.05;;;46.30;38.70;45.80;100690;;;;580435;244;23125;-83
2023/06/09 09:05:33;;;;;;;5.68;4.62;;;46.20;38.70;45.90;100686;;;;580859;244;23111;-81
2023/06/09 09:08:00;;;;;;;5.87;4.57;;;46.20;39.00;46.10;100694;;;;589817;243;23102;-80
2023/06/09 09:10:29;;;;;;;7.93;5.05;;;46.50;38.40;45.90;100693;;;;581551;244;35206;-80
2023/06/09 09:12:59;;;;;;;6.75;4.70;;;46.40;38.30;45.40;100695;;;;589307;243;23100;-83
2023/06/09 09:15:30;;;;;;;9.80;4.53;;;46.00;38.50;44.90;100695;;;;589259;243;23072;-81
2023/06/09 09:17:55;;;;;;;13.77;5.03;;;45.50;38.80;45.00;100696;;;;580053;244;23167;-81
2023/06/09 09:20:23;;;;;;;7.30;4.53;;;45.40;39.20;45.50;100699;;;;579964;244;23152;-82
2023/06/09 09:22:55;;;;;;;9.90;5.18;;;45.70;39.30;46.10;100699;;;;579282;244;23094;-82
2023/06/09 09:25:28;;;;;;;9.90;5.00;;;46.30;38.90;46.20;100703;;;;579658;244;23090;-81
2023/06/09 09:28:08;;;;;;;7.62;4.43;;;46.60;38.00;46.30;100703;;;;586196;244;23145;-81
2023/06/09 09:30:55;;;;;;;5.00;4.32;;;46.80;37.60;46.60;100707;;;;580502;244;23124;-80
2023/06/09 09:33:20;;;;;;;11.73;5.03;;;47.00;37.30;46.70;100700;;;;580669;244;23090;-79
2023/06/09 09:35:47;;;;;;;9.43;5.30;;;47.30;37.40;46.70;100700;;;;580572;244;23127;-80
2023/06/09 09:38:16;;;;;;;6.30;4.35;;;47.40;37.30;46.40;100704;;;;580810;244;23040;-82
2023/06/09 09:40:46;;;;;;;11.98;4.90;;;47.20;36.80;46.40;100699;;;;586090;244;23088;-81
2023/06/09 09:43:13;;;;;;;8.18;4.32;;;47.10;37.10;46.50;100713;;;;580696;244;23131;-79
2023/06/09 09:45:47;;;;;;;9.02;5.22;;;47.20;36.40;46.30;100705;;;;581933;244;35199;-81
2023/06/09 09:48:19;;;;;;;5.60;4.85;;;47.20;36.50;45.80;100712;;;;589322;243;23164;-84
2023/06/09 09:50:44;;;;;;;9.70;4.50;;;46.80;37.00;45.70;100705;;;;579809;244;23150;-83
2023/06/09 09:53:11;;;;;;;9.57;4.22;;;46.60;37.20;45.40;100704;;;;580232;244;23063;-83
2023/06/09 09:55:39;;;;;;;5.00;4.60;;;46.30;37.40;45.00;100704;;;;586385;244;23081;-83
2023/06/09 09:58:07;;;;;;;5.80;4.65;;;46.00;37.80;45.10;100706;;;;579794;244;23131;-82
2023/06/09 10:00:39;;;;;;;7.37;4.93;;;45.80;38.60;45.00;100705;;;;589398;243;24099;-83
2023/06/09 10:03:07;;;;;;;7.60;4.87;;;45.70;38.50;45.00;100710;;;;580147;244;24186;-83
2023/06/09 10:05:34;;;;;;;7.30;4.90;;;45.90;38.50;44.30;100706;;;;580811;243;23176;-83
2023/06/09 10:08:03;;;;;;;6.25;4.65;;;45.50;39.00;43.80;100706;;;;589812;243;24222;-83
2023/06/09 10:10:33;;;;;;;4.72;4.40;;;45.00;39.20;43.50;100695;;;;580817;244;23106;-83
2023/06/09 10:13:00;;;;;;;5.78;4.97;;;44.50;39.40;43.30;100702;;;;586513;244;23098;-81
2023/06/09 10:15:26;;;;;;;9.82;4.60;;;44.10;39.80;42.90;100700;;;;586486;244;23059;-82
2023/06/09 10:17:58;;;;;;;7.85;4.62;;;43.70;40.00;42.10;100704;;;;580450;244;23120;-82
2023/06/09 10:20:22;;;;;;;8.63;5.28;;;43.00;41.30;41.20;100711;;;;580159;244;23094;-82
2023/06/09 10:22:51;;;;;;;5.45;4.75;;;41.40;42.90;40.50;100708;;;;580655;244;23086;-83
2023/06/09 10:25:19;;;;;;;7.03;5.00;;;41.30;42.80;39.60;100698;;;;580381;244;23080;-83
2023/06/09 10:27:47;;;;;;;4.43;4.12;;;40.50;43.50;39.20;100700;;;;586539;244;24103;-83
2023/06/09 10:30:14;;;;;;;9.80;4.87;;;39.90;44.30;38.50;100703;;;;580480;244;24223;-82
2023/06/09 10:32:52;;;;;;;11.40;4.90;;;39.20;45.40;37.60;100701;;;;580277;244;23151;-83
2023/06/09 10:35:19;;;;;;;5.25;4.78;;;38.60;45.70;36.40;100695;;;;580517;244;23093;-83
2023/06/09 10:37:49;;;;;;;11.02;4.78;;;37.60;46.90;35.40;100699;;;;580622;244;23084;-82
2023/06/09 10:40:31;;;;;;;9.50;4.25;;;36.60;48.80;34.30;100691;;;;580809;244;23100;-83
2023/06/09 10:43:05;;;;;;;5.75;4.30;;;33.70;51.80;33.20;100688;;;;580350;244;23102;-82
2023/06/09 10:45:52;;;;;;;5.43;4.93;;;33.70;51.80;31.90;100685;;;;580022;244;23083;-80
2023/06/09 10:48:41;;;;;;;6.47;4.60;;;31.00;57.10;30.80;100694;;;;580767;244;23087;-81
2023/06/09 10:51:28;;;;;;;6.80;3.92;;;29.90;58.40;29.60;100684;;;;578729;247;23092;-81
2023/06/09 10:54:09;;;;;;;7.93;4.37;;;28.80;60.20;28.40;100690;;;;579197;244;23078;-80
2023/06/09 10:56:39;;;;;;;5.72;3.72;;;28.00;62.90;27.70;100683;;;;580257;244;23086;-80
2023/06/09 10:59:05;;;;;;;8.67;3.87;;;27.40;65.70;27.20;100691;;;;580099;244;23111;-80
2023/06/09 11:01:34;;;;;;;5.13;4.63;;;26.80;67.50;26.50;100681;;;;589363;243;23091;-79
2023/06/09 11:04:02;;;;;;;6.10;4.40;;;26.70;67.40;25.80;100681;;;;589472;243;23158;-79
2023/06/09 11:06:30;;;;;;;6.47;4.33;;;26.20;70.10;25.50;100686;;;;578002;244;23071;-79
2023/06/09 11:09:11;;;;;;;4.93;4.27;;;25.70;72.50;25.00;100674;;;;589813;243;23093;-79
2023/06/09 11:11:53;;;;;;;12.73;3.70;;;25.30;74.80;24.60;100680;;;;580513;244;24152;-78
2023/06/09 11:14:45;;;;;;;5.17;4.37;;;25.00;76.60;24.20;100677;;;;580096;244;24063;-78
2023/06/09 11:17:32;;;;;;;7.23;4.40;;;24.20;79.90;23.80;100689;;;;590491;242;24069;-79